Terminal Aerodrome Forecast
Issued by NWS Newport/Morehead City, NC

Home | Current Version | Previous Version | Graphics & Text | Print | Product List | Glossary On
Versions: 1 2 3 4 5 6 7 8 9 10 11 12 13 14 15 16 17 18
588
FTUS42 KMHX 220540
TAFEWN
TAF
KEWN 220540Z 2206/2306 03004KT P6SM VCSH SCT030 BKN090
     FM221000 02003KT 6SM BR BKN007
     FM221500 35005KT P6SM VCSH OVC025
     FM222000 36006KT P6SM -SHRA BKN040
     FM230200 36006KT P6SM BKN050=

USA.gov is the U.S. government's official web portal to all federal, state and local government web resources and services.